createdAt,value
2022-09-12T00:00:00.702Z,99878.14
2022-09-12T00:02:28.727Z,99872.81
2022-09-12T00:04:56.669Z,99874.50
2022-09-12T00:07:24.651Z,99876.56
2022-09-12T00:09:53.262Z,99876.44
2022-09-12T00:12:21.271Z,99878.46
2022-09-12T00:14:49.102Z,99873.96
2022-09-12T00:17:17.140Z,99873.80
2022-09-12T00:19:45.418Z,99873.23
2022-09-12T00:22:13.393Z,99878.34
2022-09-12T00:24:41.257Z,99881.50
2022-09-12T00:27:08.954Z,99879.37
2022-09-12T00:29:36.755Z,99878.70
2022-09-12T00:32:04.837Z,99885.02
2022-09-12T00:34:32.977Z,99885.81
2022-09-12T00:37:01.200Z,99889.05
2022-09-12T00:39:28.970Z,99891.95
2022-09-12T00:41:56.796Z,99892.77
2022-09-12T00:44:24.887Z,99891.91
2022-09-12T00:46:54.905Z,99892.73
2022-09-12T00:49:28.615Z,99893.93
2022-09-12T00:52:02.017Z,99892.01
2022-09-12T00:54:32.820Z,99895.23
2022-09-12T00:57:03.401Z,99899.64
2022-09-12T00:59:54.342Z,99897.92
2022-09-12T01:02:22.474Z,99896.98
2022-09-12T01:04:52.143Z,99892.96
2022-09-12T01:07:21.653Z,99894.18
2022-09-12T01:09:49.482Z,99897.00
2022-09-12T01:12:17.877Z,99893.02
2022-09-12T01:14:46.156Z,99890.72
2022-09-12T01:17:15.127Z,99891.05
2022-09-12T01:19:43.169Z,99885.69
2022-09-12T01:22:11.406Z,99887.48
2022-09-12T01:24:48.197Z,99891.80
2022-09-12T01:27:19.352Z,99889.59
2022-09-12T01:30:03.308Z,99886.32
2022-09-12T01:32:49.364Z,99882.42
2022-09-12T01:35:24.748Z,99885.98
2022-09-12T01:37:59.770Z,99893.07
2022-09-12T01:40:54.267Z,99901.19
2022-09-12T01:43:26.736Z,99894.45
2022-09-12T01:46:06.688Z,99898.82
2022-09-12T01:48:41.269Z,99897.19
2022-09-12T01:51:18.698Z,99894.94
2022-09-12T01:53:49.025Z,99890.36
2022-09-12T01:56:25.033Z,99884.04
2022-09-12T01:59:15.371Z,99882.97
2022-09-12T02:01:48.980Z,99886.99
2022-09-12T02:04:19.919Z,99887.45
2022-09-12T02:07:00.165Z,99889.38
2022-09-12T02:09:39.055Z,99891.81
2022-09-12T02:12:10.063Z,99892.70
2022-09-12T02:14:41.256Z,99898.02
2022-09-12T02:17:12.492Z,99895.86
2022-09-12T02:19:52.724Z,99904.39
2022-09-12T02:22:22.966Z,99911.36
2022-09-12T02:24:53.014Z,99921.95
2022-09-12T02:27:38.106Z,99936.31
2022-09-12T02:30:06.878Z,99942.23
2022-09-12T02:32:42.469Z,99939.70
2022-09-12T02:35:44.094Z,99921.33
2022-09-12T02:38:26.843Z,99901.23
2022-09-12T02:40:55.278Z,99911.80
2022-09-12T02:43:23.054Z,99911.84
2022-09-12T02:45:51.436Z,99912.04
2022-09-12T02:48:27.679Z,99920.06
2022-09-12T02:50:56.255Z,99921.52
2022-09-12T02:53:26.738Z,99925.33
2022-09-12T02:55:54.587Z,99926.11
2022-09-12T02:58:25.580Z,99926.59
2022-09-12T03:01:13.791Z,99931.30
2022-09-12T03:03:56.815Z,99933.88
2022-09-12T03:06:31.128Z,99937.98
2022-09-12T03:09:05.425Z,99934.91
2022-09-12T03:11:51.271Z,99935.68
2022-09-12T03:14:21.774Z,99934.46
2022-09-12T03:16:50.250Z,99938.95
2022-09-12T03:19:39.579Z,99937.92
2022-09-12T03:22:07.651Z,99934.69
2022-09-12T03:24:38.857Z,99938.98
2022-09-12T03:27:18.153Z,99938.80
2022-09-12T03:29:47.979Z,99934.63
2022-09-12T03:32:15.766Z,99934.89
2022-09-12T03:34:44.155Z,99930.15
2022-09-12T03:37:11.795Z,99933.48
2022-09-12T03:39:39.775Z,99933.14
2022-09-12T03:42:07.961Z,99937.72
2022-09-12T03:44:36.054Z,99934.34
2022-09-12T03:47:06.050Z,99938.34
2022-09-12T03:49:37.050Z,99944.79
2022-09-12T03:52:05.282Z,99945.63
2022-09-12T03:54:33.502Z,99944.20
2022-09-12T03:57:01.551Z,99949.67
2022-09-12T03:59:29.538Z,99952.08
2022-09-12T04:01:57.529Z,99954.65
2022-09-12T04:04:25.449Z,99957.27
2022-09-12T04:06:53.642Z,99956.55
2022-09-12T04:09:21.835Z,99957.25
2022-09-12T04:11:49.787Z,99957.95
2022-09-12T04:14:17.748Z,99960.41
2022-09-12T04:16:45.570Z,99963.56
2022-09-12T04:19:13.693Z,99965.30
2022-09-12T04:21:41.613Z,99963.42
2022-09-12T04:24:09.744Z,99968.52
2022-09-12T04:26:38.024Z,99973.48
2022-09-12T04:29:05.785Z,99974.45
2022-09-12T04:31:33.502Z,99973.08
2022-09-12T04:34:01.818Z,99977.37
2022-09-12T04:36:29.988Z,99980.59
2022-09-12T04:38:58.624Z,99983.19
2022-09-12T04:41:28.551Z,99984.09
2022-09-12T04:44:01.940Z,99982.17
2022-09-12T04:46:31.122Z,99982.50
2022-09-12T04:48:59.053Z,99982.08
2022-09-12T04:51:31.284Z,99980.85
2022-09-12T04:54:00.342Z,99983.23
2022-09-12T04:56:29.428Z,99988.17
2022-09-12T04:59:00.867Z,99988.34
2022-09-12T05:01:30.238Z,99995.72
2022-09-12T05:03:59.943Z,99995.57
2022-09-12T05:06:30.158Z,99999.48
2022-09-12T05:08:58.622Z,100003.77
2022-09-12T05:11:41.265Z,100009.11
2022-09-12T05:14:15.917Z,100007.48
2022-09-12T05:16:48.549Z,100011.20
2022-09-12T05:19:18.095Z,100015.40
2022-09-12T05:21:46.206Z,100019.79
2022-09-12T05:24:14.495Z,100018.30
2022-09-12T05:26:42.746Z,100023.56
2022-09-12T05:29:10.820Z,100025.70
2022-09-12T05:31:39.192Z,100028.34
2022-09-12T05:34:09.172Z,100025.88
2022-09-12T05:36:37.557Z,100023.54
2022-09-12T05:39:06.175Z,100023.97
2022-09-12T05:41:34.571Z,100029.48
2022-09-12T05:44:04.195Z,100030.48
2022-09-12T05:46:35.767Z,100030.05
2022-09-12T05:49:07.657Z,100031.05
2022-09-12T05:51:38.352Z,100030.48
2022-09-12T05:54:07.672Z,100031.65
2022-09-12T05:56:39.517Z,100028.16
2022-09-12T05:59:12.229Z,100027.67
2022-09-12T06:01:40.409Z,100028.61
2022-09-12T06:04:08.875Z,100027.95
2022-09-12T06:06:38.627Z,100027.65
2022-09-12T06:09:07.113Z,100028.42
2022-09-12T06:11:35.999Z,100029.93
2022-09-12T06:14:04.339Z,100030.70
2022-09-12T06:16:33.558Z,100029.81
2022-09-12T06:19:04.648Z,100024.65
2022-09-12T06:21:34.318Z,100023.16
2022-09-12T06:24:02.177Z,100027.42
2022-09-12T06:26:30.269Z,100028.85
2022-09-12T06:29:00.115Z,100029.22
2022-09-12T06:31:29.713Z,100031.13
2022-09-12T06:33:59.508Z,100029.62
2022-09-12T06:36:29.345Z,100038.28
2022-09-12T06:38:58.552Z,100041.14
2022-09-12T06:41:26.961Z,100041.89
2022-09-12T06:43:55.499Z,100043.42
2022-09-12T06:46:23.757Z,100043.67
2022-09-12T06:48:51.850Z,100045.32
2022-09-12T06:51:20.613Z,100048.77
2022-09-12T06:53:48.944Z,100047.17
2022-09-12T06:56:19.704Z,100051.91
2022-09-12T06:58:49.823Z,100054.38
2022-09-12T07:01:24.462Z,100060.50
2022-09-12T07:03:53.167Z,100065.48
2022-09-12T07:06:22.217Z,100068.97
2022-09-12T07:08:50.886Z,100064.98
2022-09-12T07:11:21.629Z,100066.48
2022-09-12T07:13:51.319Z,100068.75
2022-09-12T07:16:20.326Z,100071.11
2022-09-12T07:18:52.682Z,100071.34
2022-09-12T07:21:20.749Z,100072.44
2022-09-12T07:23:49.505Z,100073.20
2022-09-12T07:26:18.391Z,100074.45
2022-09-12T07:28:50.679Z,100074.54
2022-09-12T07:31:19.414Z,100073.15
2022-09-12T07:33:57.079Z,100078.77
2022-09-12T07:36:25.744Z,100078.10
2022-09-12T07:38:57.658Z,100081.86
2022-09-12T07:41:31.346Z,100080.35
2022-09-12T07:44:00.547Z,100075.88
2022-09-12T07:46:30.208Z,100079.73
2022-09-12T07:49:00.255Z,100078.55
2022-09-12T07:51:29.883Z,100081.65
2022-09-12T07:53:58.752Z,100086.98
2022-09-12T07:56:31.070Z,100088.38
2022-09-12T07:59:00.321Z,100088.52
2022-09-12T08:01:28.380Z,100086.16
2022-09-12T08:03:57.729Z,100088.92
2022-09-12T08:06:26.585Z,100091.79
2022-09-12T08:08:55.540Z,100093.02
2022-09-12T08:11:24.081Z,100091.21
2022-09-12T08:13:55.681Z,100089.38
2022-09-12T08:16:26.242Z,100091.48
2022-09-12T08:18:54.789Z,100092.16
2022-09-12T08:21:24.204Z,100089.99
2022-09-12T08:23:53.598Z,100094.77
2022-09-12T08:26:22.026Z,100091.36
2022-09-12T08:28:50.111Z,100092.04
2022-09-12T08:31:19.758Z,100094.83
2022-09-12T08:33:48.067Z,100093.05
2022-09-12T08:36:17.568Z,100095.98
2022-09-12T08:38:46.793Z,100090.23
2022-09-12T08:41:17.808Z,100087.33
2022-09-12T08:44:04.726Z,100089.70
2022-09-12T08:46:51.833Z,100087.99
2022-09-12T08:49:42.258Z,100086.40
2022-09-12T08:52:19.776Z,100088.26
2022-09-12T08:54:47.865Z,100086.24
2022-09-12T08:57:15.778Z,100084.16
2022-09-12T08:59:45.014Z,100084.77
2022-09-12T09:02:22.023Z,100083.97
2022-09-12T09:04:56.541Z,100081.92
2022-09-12T09:07:33.621Z,100083.92
2022-09-12T09:10:17.067Z,100084.15
2022-09-12T09:12:51.221Z,100083.36
2022-09-12T09:15:40.870Z,100079.84
2022-09-12T09:18:16.676Z,100077.77
2022-09-12T09:20:56.949Z,100081.87
2022-09-12T09:23:46.278Z,100081.55
2022-09-12T09:26:14.803Z,100083.42
2022-09-12T09:29:03.585Z,100083.69
2022-09-12T09:31:36.161Z,100081.92
2022-09-12T09:34:13.013Z,100078.08
2022-09-12T09:36:40.824Z,100079.73
2022-09-12T09:39:27.493Z,100078.41
2022-09-12T09:41:55.234Z,100078.21
2022-09-12T09:44:23.853Z,100073.58
2022-09-12T09:46:54.585Z,100075.60
2022-09-12T09:49:23.034Z,100074.61
2022-09-12T09:51:51.458Z,100074.27
2022-09-12T09:54:28.452Z,100074.64
2022-09-12T09:56:56.568Z,100078.52
2022-09-12T09:59:25.356Z,100071.67
2022-09-12T10:01:57.914Z,100070.66
2022-09-12T10:04:27.062Z,100071.71
2022-09-12T10:06:57.007Z,100068.63
2022-09-12T10:09:27.425Z,100074.52
2022-09-12T10:11:56.310Z,100070.64
2022-09-12T10:14:27.372Z,100072.06
2022-09-12T10:16:57.519Z,100071.90
2022-09-12T10:19:36.119Z,100064.86
2022-09-12T10:22:05.008Z,100060.63
2022-09-12T10:24:33.210Z,100064.46
2022-09-12T10:27:07.555Z,100063.45
2022-09-12T10:29:44.286Z,100057.65
2022-09-12T10:32:13.134Z,100055.66
2022-09-12T10:34:45.472Z,100058.73
2022-09-12T10:37:25.844Z,100062.25
2022-09-12T10:39:56.871Z,100060.22
2022-09-12T10:42:43.415Z,100058.90
2022-09-12T10:45:32.012Z,100058.02
2022-09-12T10:48:06.802Z,100061.55
2022-09-12T10:50:36.347Z,100063.71
2022-09-12T10:53:22.580Z,100065.77
2022-09-12T10:55:59.402Z,100069.71
2022-09-12T10:58:36.622Z,100067.73
2022-09-12T11:01:30.161Z,100067.46
2022-09-12T11:03:58.162Z,100069.15
2022-09-12T11:06:33.430Z,100066.09
2022-09-12T11:09:17.427Z,100063.44
2022-09-12T11:11:51.836Z,100065.42
2022-09-12T11:14:36.741Z,100066.99
2022-09-12T11:17:28.889Z,100066.10
2022-09-12T11:20:07.270Z,100065.85
2022-09-12T11:22:53.277Z,100062.39
2022-09-12T11:25:37.901Z,100068.15
2022-09-12T11:28:24.363Z,100066.75
2022-09-12T11:30:55.703Z,100066.34
2022-09-12T11:33:34.119Z,100065.06
2022-09-12T11:36:05.104Z,100065.01
2022-09-12T11:38:32.793Z,100061.39
2022-09-12T11:41:28.783Z,100063.13
2022-09-12T11:44:14.984Z,100061.41
2022-09-12T11:46:43.613Z,100059.85
2022-09-12T11:49:14.422Z,100057.37
2022-09-12T11:51:42.813Z,100054.80
2022-09-12T11:54:25.571Z,100049.33
2022-09-12T11:56:59.979Z,100047.62
2022-09-12T12:00:00.299Z,100040.09
2022-09-12T12:02:30.203Z,100042.83
2022-09-12T12:05:04.460Z,100040.85
2022-09-12T12:07:45.202Z,100046.75
2022-09-12T12:10:25.311Z,100047.33
2022-09-12T12:12:54.896Z,100051.08
2022-09-12T12:15:23.257Z,100048.34
2022-09-12T12:18:01.326Z,100043.62
2022-09-12T12:20:29.626Z,100041.95
2022-09-12T12:22:57.599Z,100041.96
2022-09-12T12:25:37.693Z,100044.42
2022-09-12T12:28:06.725Z,100045.10
2022-09-12T12:30:41.049Z,100048.73
2022-09-12T12:33:10.345Z,100051.63
2022-09-12T12:35:41.397Z,100049.53
2022-09-12T12:38:27.865Z,100047.94
2022-09-12T12:41:15.650Z,100044.90
2022-09-12T12:43:47.040Z,100042.52
2022-09-12T12:46:15.892Z,100040.41
2022-09-12T12:48:52.662Z,100041.73
2022-09-12T12:51:23.568Z,100043.70
2022-09-12T12:53:52.538Z,100044.83
2022-09-12T12:56:28.429Z,100043.48
2022-09-12T12:58:59.041Z,100043.33
2022-09-12T13:01:28.320Z,100040.32
2022-09-12T13:04:01.436Z,100039.33
2022-09-12T13:06:35.475Z,100039.30
2022-09-12T13:09:05.873Z,100033.23
2022-09-12T13:11:35.471Z,100033.59
2022-09-12T13:14:04.714Z,100025.67
2022-09-12T13:16:37.187Z,100023.19
2022-09-12T13:19:16.174Z,100021.07
2022-09-12T13:22:06.449Z,100018.20
2022-09-12T13:24:35.506Z,100013.11
2022-09-12T13:27:04.248Z,100009.55
2022-09-12T13:29:32.155Z,100015.46
2022-09-12T13:32:01.573Z,100021.11
2022-09-12T13:34:29.593Z,100016.86
2022-09-12T13:37:15.226Z,100015.13
2022-09-12T13:39:46.546Z,100015.59
2022-09-12T13:42:32.765Z,100011.38
2022-09-12T13:45:04.124Z,100009.55
2022-09-12T13:47:37.407Z,100008.64
2022-09-12T13:50:07.527Z,100009.96
2022-09-12T13:52:38.206Z,100006.20
2022-09-12T13:55:09.379Z,100004.58
2022-09-12T13:57:38.284Z,100003.50
2022-09-12T14:00:19.477Z,100002.46
2022-09-12T14:02:48.779Z,99999.33
2022-09-12T14:05:22.374Z,99998.73
2022-09-12T14:07:59.016Z,99997.79
2022-09-12T14:10:33.665Z,99997.17
2022-09-12T14:13:03.307Z,99993.67
2022-09-12T14:15:36.046Z,99992.68
2022-09-12T14:18:05.935Z,99992.98
2022-09-12T14:20:38.688Z,99995.37
2022-09-12T14:23:19.119Z,99993.02
2022-09-12T14:25:48.153Z,99991.95
2022-09-12T14:28:23.579Z,99990.66
2022-09-12T14:31:17.971Z,99988.70
2022-09-12T14:33:48.340Z,99989.05
2022-09-12T14:36:20.035Z,99988.71
2022-09-12T14:38:50.669Z,99989.81
2022-09-12T14:41:24.286Z,99989.45
2022-09-12T14:43:53.996Z,99987.98
2022-09-12T14:46:24.869Z,99987.10
2022-09-12T14:48:54.501Z,99982.40
2022-09-12T14:51:26.366Z,99986.42
2022-09-12T14:53:54.287Z,99982.60
2022-09-12T14:56:22.795Z,99977.38
2022-09-12T14:58:50.778Z,99978.05
2022-09-12T15:01:18.427Z,99977.45
2022-09-12T15:03:49.803Z,99972.95
2022-09-12T15:06:23.914Z,99975.69
2022-09-12T15:08:53.364Z,99972.79
2022-09-12T15:11:21.669Z,99974.77
2022-09-12T15:13:49.883Z,99970.42
2022-09-12T15:16:17.771Z,99966.46
2022-09-12T15:18:46.011Z,99966.17
2022-09-12T15:21:19.048Z,99965.95
2022-09-12T15:23:50.910Z,99960.06
2022-09-12T15:26:23.386Z,99963.90
2022-09-12T15:28:52.253Z,99961.23
2022-09-12T15:31:30.494Z,99962.77
2022-09-12T15:34:00.414Z,99961.59
2022-09-12T15:36:29.007Z,99966.39
2022-09-12T15:38:57.357Z,99963.48
2022-09-12T15:41:27.982Z,99967.32
2022-09-12T15:43:56.831Z,99965.75
2022-09-12T15:46:25.131Z,99966.61
2022-09-12T15:48:53.081Z,99963.51
2022-09-12T15:51:21.444Z,99966.72
2022-09-12T15:53:50.358Z,99965.04
2022-09-12T15:56:19.075Z,99965.06
2022-09-12T15:58:58.176Z,99965.06
2022-09-12T16:01:27.756Z,99967.89
2022-09-12T16:03:55.536Z,99967.11
2022-09-12T16:06:23.617Z,99965.15
2022-09-12T16:08:51.393Z,99964.92
2022-09-12T16:11:23.588Z,99958.77
2022-09-12T16:13:54.980Z,99963.59
2022-09-12T16:16:23.287Z,99962.02
2022-09-12T16:18:51.351Z,99959.75
2022-09-12T16:21:19.277Z,99961.55
2022-09-12T16:23:47.648Z,99959.72
2022-09-12T16:26:16.014Z,99961.17
2022-09-12T16:28:44.162Z,99960.88
2022-09-12T16:31:13.418Z,99961.48
2022-09-12T16:33:42.009Z,99966.67
2022-09-12T16:36:11.289Z,99964.48
2022-09-12T16:38:47.092Z,99965.17
2022-09-12T16:41:16.164Z,99961.36
2022-09-12T16:43:44.418Z,99963.33
2022-09-12T16:46:12.247Z,99966.63
2022-09-12T16:48:48.111Z,99967.41
2022-09-12T16:51:32.486Z,99966.86
2022-09-12T16:54:00.920Z,99966.40
2022-09-12T16:56:28.677Z,99967.11
2022-09-12T16:58:56.413Z,99966.39
2022-09-12T17:01:25.733Z,99972.71
2022-09-12T17:03:54.459Z,99966.57
2022-09-12T17:06:22.392Z,99971.25
2022-09-12T17:08:52.158Z,99971.20
2022-09-12T17:11:22.335Z,99975.21
2022-09-12T17:14:04.282Z,99973.52
2022-09-12T17:16:35.897Z,99975.48
2022-09-12T17:19:04.865Z,99979.56
2022-09-12T17:21:33.209Z,99975.29
2022-09-12T17:24:01.237Z,99978.06
2022-09-12T17:26:28.899Z,99975.98
2022-09-12T17:28:56.723Z,99975.45
2022-09-12T17:31:24.709Z,99978.92
2022-09-12T17:33:56.019Z,99982.62
2022-09-12T17:36:23.743Z,99981.16
2022-09-12T17:38:52.247Z,99988.06
2022-09-12T17:41:21.888Z,99991.11
2022-09-12T17:43:55.932Z,99993.93
2022-09-12T17:46:24.865Z,100003.72
2022-09-12T17:48:53.797Z,100003.98
2022-09-12T17:51:22.630Z,100011.45
2022-09-12T17:54:10.674Z,100008.63
2022-09-12T17:56:39.455Z,100015.73
2022-09-12T17:59:08.924Z,100015.03
2022-09-12T18:01:55.196Z,100017.23
2022-09-12T18:04:23.260Z,100021.33
2022-09-12T18:06:50.937Z,100025.41
2022-09-12T18:09:19.941Z,100025.16
2022-09-12T18:11:48.478Z,100030.38
2022-09-12T18:14:17.306Z,100033.35
2022-09-12T18:16:46.329Z,100038.48
2022-09-12T18:19:14.859Z,100043.55
2022-09-12T18:21:42.902Z,100044.39
2022-09-12T18:24:11.091Z,100054.00
2022-09-12T18:26:38.817Z,100063.53
2022-09-12T18:29:07.274Z,100060.84
2022-09-12T18:31:35.619Z,100060.95
2022-09-12T18:34:04.061Z,100061.41
2022-09-12T18:36:32.582Z,100060.09
2022-09-12T18:39:00.750Z,100056.77
2022-09-12T18:41:29.053Z,100059.10
2022-09-12T18:43:58.000Z,100062.66
2022-09-12T18:46:26.490Z,100063.17
2022-09-12T18:48:57.998Z,100063.63
2022-09-12T18:51:34.106Z,100069.30
2022-09-12T18:54:08.856Z,100073.48
2022-09-12T18:56:38.373Z,100077.55
2022-09-12T18:59:07.028Z,100078.90
2022-09-12T19:01:36.674Z,100078.30
2022-09-12T19:04:05.599Z,100074.35
2022-09-12T19:06:35.453Z,100077.76
2022-09-12T19:09:07.603Z,100083.63
2022-09-12T19:11:38.033Z,100087.38
2022-09-12T19:14:06.166Z,100088.79
2022-09-12T19:16:34.798Z,100090.27
2022-09-12T19:19:03.308Z,100093.80
2022-09-12T19:21:31.482Z,100094.02
2022-09-12T19:24:00.621Z,100095.73
2022-09-12T19:26:28.508Z,100101.77
2022-09-12T19:28:56.525Z,100104.18
2022-09-12T19:31:24.508Z,100102.84
2022-09-12T19:33:52.608Z,100104.45
2022-09-12T19:36:43.731Z,100105.84
2022-09-12T19:39:09.636Z,100105.15
2022-09-12T19:41:37.591Z,100108.02
2022-09-12T19:44:05.920Z,100106.33
2022-09-12T19:46:33.870Z,100104.39
2022-09-12T19:49:02.020Z,100108.64
2022-09-12T19:51:29.659Z,100110.70
2022-09-12T19:53:57.397Z,100114.05
2022-09-12T19:56:25.101Z,100112.64
2022-09-12T19:58:56.335Z,100112.08
2022-09-12T20:01:29.593Z,100112.64
2022-09-12T20:03:57.944Z,100111.77
2022-09-12T20:06:26.941Z,100107.56
2022-09-12T20:08:55.214Z,100112.04
2022-09-12T20:11:23.648Z,100114.16
2022-09-12T20:13:52.198Z,100116.70
2022-09-12T20:16:22.058Z,100119.89
2022-09-12T20:18:54.696Z,100117.20
2022-09-12T20:21:25.437Z,100116.41
2022-09-12T20:23:53.688Z,100115.21
2022-09-12T20:26:23.487Z,100117.41
2022-09-12T20:28:51.148Z,100112.77
2022-09-12T20:31:19.264Z,100114.42
2022-09-12T20:33:51.665Z,100114.72
2022-09-12T20:36:20.563Z,100115.05
2022-09-12T20:38:50.600Z,100114.73
2022-09-12T20:41:19.944Z,100118.71
2022-09-12T20:43:51.487Z,100121.09
2022-09-12T20:46:21.990Z,100118.25
2022-09-12T20:48:51.167Z,100116.77
2022-09-12T20:51:19.818Z,100114.28
2022-09-12T20:53:52.731Z,100118.02
2022-09-12T20:56:21.169Z,100117.27
2022-09-12T20:58:49.303Z,100116.55
2022-09-12T21:01:17.458Z,100117.20
2022-09-12T21:03:46.337Z,100112.75
2022-09-12T21:06:17.262Z,100119.27
2022-09-12T21:08:45.850Z,100117.88
2022-09-12T21:11:16.563Z,100122.34
2022-09-12T21:13:45.428Z,100123.76
2022-09-12T21:16:14.679Z,100122.17
2022-09-12T21:18:42.853Z,100123.37
2022-09-12T21:21:12.841Z,100123.72
2022-09-12T21:23:41.302Z,100120.58
2022-09-12T21:26:09.723Z,100120.80
2022-09-12T21:28:37.769Z,100121.00
2022-09-12T21:31:06.571Z,100120.84
2022-09-12T21:33:34.574Z,100123.98
2022-09-12T21:36:04.214Z,100122.80
2022-09-12T21:38:32.507Z,100120.52
2022-09-12T21:41:07.818Z,100121.55
2022-09-12T21:43:36.752Z,100120.43
2022-09-12T21:46:05.670Z,100120.55
2022-09-12T21:48:33.913Z,100120.79
2022-09-12T21:51:02.362Z,100118.09
2022-09-12T21:53:31.147Z,100113.36
2022-09-12T21:56:03.937Z,100110.64
2022-09-12T21:58:31.904Z,100107.30
2022-09-12T22:01:01.475Z,100107.48
2022-09-12T22:03:29.939Z,100107.49
2022-09-12T22:05:58.997Z,100105.23
2022-09-12T22:08:27.648Z,100106.08
2022-09-12T22:11:03.219Z,100104.25
2022-09-12T22:13:32.553Z,100107.55
2022-09-12T22:16:03.144Z,100107.11
2022-09-12T22:18:32.722Z,100106.77
2022-09-12T22:21:05.231Z,100111.64
2022-09-12T22:23:51.512Z,100107.60
2022-09-12T22:26:19.682Z,100106.13
2022-09-12T22:28:47.758Z,100109.01
2022-09-12T22:31:16.167Z,100107.30
2022-09-12T22:33:44.603Z,100105.92
2022-09-12T22:36:12.772Z,100105.80
2022-09-12T22:38:40.890Z,100103.55
2022-09-12T22:41:10.500Z,100103.98
2022-09-12T22:43:38.714Z,100100.89
2022-09-12T22:46:08.094Z,100106.81
2022-09-12T22:48:37.864Z,100109.39
2022-09-12T22:51:05.863Z,100105.52
2022-09-12T22:53:34.411Z,100105.92
2022-09-12T22:56:03.202Z,100108.87
2022-09-12T22:58:32.022Z,100110.80
2022-09-12T23:01:00.258Z,100109.90
2022-09-12T23:03:28.897Z,100109.34
2022-09-12T23:05:57.099Z,100107.71
2022-09-12T23:08:29.848Z,100109.21
2022-09-12T23:11:01.709Z,100108.05
2022-09-12T23:13:29.713Z,100104.38
2022-09-12T23:15:58.864Z,100097.66
2022-09-12T23:18:27.021Z,100093.34
2022-09-12T23:21:02.777Z,100091.00
2022-09-12T23:23:31.178Z,100090.13
2022-09-12T23:26:01.913Z,100088.49
2022-09-12T23:28:30.001Z,100090.67
2022-09-12T23:30:59.478Z,100088.52
2022-09-12T23:33:30.745Z,100084.73
2022-09-12T23:36:02.911Z,100080.48
2022-09-12T23:38:31.259Z,100079.45
2022-09-12T23:41:02.671Z,100080.40
2022-09-12T23:43:31.051Z,100085.02
2022-09-12T23:46:00.872Z,100087.37
2022-09-12T23:48:29.529Z,100083.75
2022-09-12T23:50:57.858Z,100082.55
2022-09-12T23:53:26.889Z,100083.68
2022-09-12T23:55:55.289Z,100081.41
2022-09-12T23:58:23.696Z,100081.51
